createdAt,value
2023-03-02T00:01:47.427Z,19.10
2023-03-02T00:04:26.473Z,18.20
2023-03-02T00:06:56.375Z,17.63
2023-03-02T00:09:23.160Z,18.02
2023-03-02T00:11:50.879Z,17.88
2023-03-02T00:14:17.761Z,17.60
2023-03-02T00:16:44.520Z,19.30
2023-03-02T00:19:11.247Z,20.27
2023-03-02T00:21:37.931Z,19.25
2023-03-02T00:24:05.017Z,19.80
2023-03-02T00:26:34.660Z,18.92
2023-03-02T00:29:01.663Z,19.17
2023-03-02T00:31:28.492Z,18.65
2023-03-02T00:33:55.392Z,18.10
2023-03-02T00:36:23.524Z,18.80
2023-03-02T00:38:52.069Z,18.77
2023-03-02T00:41:21.560Z,18.77
2023-03-02T00:43:48.907Z,19.83
2023-03-02T00:46:20.597Z,19.65
2023-03-02T00:48:47.359Z,19.60
2023-03-02T00:51:14.819Z,20.60
2023-03-02T00:53:41.643Z,18.80
2023-03-02T00:56:09.817Z,19.88
2023-03-02T00:58:37.075Z,19.95
2023-03-02T01:01:09.652Z,20.00
2023-03-02T01:03:37.050Z,19.92
2023-03-02T01:06:04.751Z,20.20
2023-03-02T01:08:31.880Z,20.17
2023-03-02T01:11:01.326Z,21.42
2023-03-02T01:13:28.556Z,20.65
2023-03-02T01:16:03.162Z,20.90
2023-03-02T01:18:29.887Z,20.23
2023-03-02T01:21:04.668Z,20.73
2023-03-02T01:23:31.363Z,20.48
2023-03-02T01:25:58.562Z,21.48
2023-03-02T01:28:25.353Z,21.27
2023-03-02T01:30:52.096Z,19.35
2023-03-02T01:33:18.768Z,20.70
2023-03-02T01:35:46.821Z,21.30
2023-03-02T01:38:14.004Z,21.98
2023-03-02T01:40:40.860Z,22.40
2023-03-02T01:43:12.768Z,23.25
2023-03-02T01:46:01.866Z,22.02
2023-03-02T01:48:32.596Z,22.02
2023-03-02T01:51:00.404Z,21.67
2023-03-02T01:53:28.896Z,21.75
2023-03-02T01:55:56.460Z,22.33
2023-03-02T01:58:23.225Z,21.67
2023-03-02T02:00:50.106Z,21.67
2023-03-02T02:03:21.115Z,22.48
2023-03-02T02:06:24.535Z,21.27
2023-03-02T02:08:52.604Z,22.65
2023-03-02T02:11:19.341Z,23.33
2023-03-02T02:13:46.298Z,23.13
2023-03-02T02:16:13.249Z,23.63
2023-03-02T02:18:41.154Z,23.02
2023-03-02T02:21:08.904Z,22.27
2023-03-02T02:24:01.586Z,22.58
2023-03-02T02:26:41.654Z,23.58
2023-03-02T02:29:15.730Z,22.98
2023-03-02T02:31:51.342Z,22.90
2023-03-02T02:34:23.222Z,22.95
2023-03-02T02:36:53.008Z,23.55
2023-03-02T02:39:24.315Z,23.70
2023-03-02T02:41:52.966Z,22.40
2023-03-02T02:44:19.772Z,24.35
2023-03-02T02:46:46.611Z,22.77
2023-03-02T02:49:35.062Z,23.73
2023-03-02T02:52:02.941Z,23.63
2023-03-02T02:54:30.294Z,23.35
2023-03-02T02:56:58.033Z,23.10
2023-03-02T02:59:28.831Z,23.55
2023-03-02T03:01:56.312Z,23.13
2023-03-02T03:04:26.963Z,23.30
2023-03-02T03:06:57.768Z,24.08
2023-03-02T03:09:25.762Z,23.67
2023-03-02T03:12:16.710Z,22.75
2023-03-02T03:14:43.661Z,21.92
2023-03-02T03:17:13.418Z,24.13
2023-03-02T03:19:42.849Z,23.65
2023-03-02T03:22:13.267Z,23.25
2023-03-02T03:24:41.188Z,23.63
2023-03-02T03:27:09.348Z,23.33
2023-03-02T03:29:38.053Z,24.00
2023-03-02T03:32:06.964Z,23.95
2023-03-02T03:34:40.316Z,23.40
2023-03-02T03:37:08.639Z,23.63
2023-03-02T03:39:35.489Z,23.40
2023-03-02T03:42:02.209Z,23.20
2023-03-02T03:44:28.990Z,23.13
2023-03-02T03:46:55.818Z,24.13
2023-03-02T03:49:22.588Z,23.70
2023-03-02T03:51:49.329Z,23.23
2023-03-02T03:54:16.004Z,24.08
2023-03-02T03:56:45.476Z,23.92
2023-03-02T03:59:14.751Z,22.98
2023-03-02T04:01:47.495Z,23.65
2023-03-02T04:04:16.720Z,23.33
2023-03-02T04:06:43.863Z,24.38
2023-03-02T04:09:12.171Z,22.67
2023-03-02T04:11:44.515Z,23.77
2023-03-02T04:14:11.588Z,23.58
2023-03-02T04:16:39.421Z,24.23
2023-03-02T04:19:09.630Z,24.25
2023-03-02T04:21:41.216Z,23.77
2023-03-02T04:24:09.048Z,24.77
2023-03-02T04:26:37.131Z,22.95
2023-03-02T04:29:04.377Z,23.90
2023-03-02T04:31:34.052Z,24.08
2023-03-02T04:34:03.982Z,25.50
2023-03-02T04:36:32.924Z,23.88
2023-03-02T04:38:59.987Z,24.00
2023-03-02T04:41:26.718Z,24.45
2023-03-02T04:43:53.445Z,24.10
2023-03-02T04:46:23.378Z,24.02
2023-03-02T04:48:50.324Z,24.23
2023-03-02T04:51:30.402Z,25.20
2023-03-02T04:53:59.583Z,24.02
2023-03-02T04:56:26.638Z,23.45
2023-03-02T04:58:53.450Z,24.42
2023-03-02T05:01:20.696Z,23.98
2023-03-02T05:03:47.862Z,22.27
2023-03-02T05:06:14.965Z,25.02
2023-03-02T05:08:41.774Z,24.25
2023-03-02T05:11:10.646Z,24.60
2023-03-02T05:13:37.393Z,23.95
2023-03-02T05:16:04.346Z,22.83
2023-03-02T05:18:31.440Z,23.52
2023-03-02T05:20:58.228Z,24.02
2023-03-02T05:23:25.806Z,22.85
2023-03-02T05:25:55.033Z,22.25
2023-03-02T05:28:23.687Z,23.45
2023-03-02T05:30:50.624Z,22.77
2023-03-02T05:33:18.147Z,23.17
2023-03-02T05:35:45.072Z,24.70
2023-03-02T05:38:11.897Z,23.27
2023-03-02T05:40:39.276Z,23.17
2023-03-02T05:43:06.626Z,22.15
2023-03-02T05:45:35.466Z,22.15
2023-03-02T05:48:02.320Z,23.10
2023-03-02T05:50:29.043Z,23.05
2023-03-02T05:52:55.701Z,22.83
2023-03-02T05:55:22.369Z,22.65
2023-03-02T05:57:49.311Z,23.50
2023-03-02T06:00:17.266Z,22.83
2023-03-02T06:02:44.208Z,22.60
2023-03-02T06:05:13.704Z,22.83
2023-03-02T06:07:41.003Z,22.52
2023-03-02T06:10:10.409Z,23.20
2023-03-02T06:12:37.200Z,22.13
2023-03-02T06:15:08.409Z,23.20
2023-03-02T06:17:35.123Z,22.58
2023-03-02T06:20:01.917Z,22.02
2023-03-02T06:22:28.633Z,23.30
2023-03-02T06:24:55.385Z,23.58
2023-03-02T06:27:22.100Z,22.38
2023-03-02T06:29:49.445Z,23.02
2023-03-02T06:32:16.302Z,23.08
2023-03-02T06:34:42.996Z,22.75
2023-03-02T06:37:09.830Z,22.60
2023-03-02T06:39:36.502Z,22.77
2023-03-02T06:42:03.150Z,21.75
2023-03-02T06:44:29.868Z,22.65
2023-03-02T06:46:56.552Z,22.73
2023-03-02T06:49:24.238Z,22.35
2023-03-02T06:51:50.897Z,23.00
2023-03-02T06:54:17.576Z,22.50
2023-03-02T06:56:44.299Z,23.45
2023-03-02T06:59:10.962Z,21.00
2023-03-02T07:01:37.746Z,21.42
2023-03-02T07:04:04.707Z,21.50
2023-03-02T07:06:31.392Z,21.27
2023-03-02T07:08:58.023Z,21.23
2023-03-02T07:11:25.037Z,20.20
2023-03-02T07:13:51.712Z,21.55
2023-03-02T07:16:18.620Z,20.98
2023-03-02T07:18:45.287Z,21.95
2023-03-02T07:21:11.973Z,20.85
2023-03-02T07:23:38.629Z,20.95
2023-03-02T07:26:08.531Z,21.48
2023-03-02T07:28:40.064Z,21.00
2023-03-02T07:31:06.915Z,20.75
2023-03-02T07:33:33.769Z,21.55
2023-03-02T07:36:00.882Z,20.50
2023-03-02T07:38:28.147Z,22.05
2023-03-02T07:40:55.300Z,20.90
2023-03-02T07:43:24.033Z,21.02
2023-03-02T07:45:50.913Z,20.15
2023-03-02T07:48:18.039Z,21.60
2023-03-02T07:50:44.724Z,20.27
2023-03-02T07:53:11.401Z,21.00
2023-03-02T07:55:41.874Z,20.15
2023-03-02T07:58:08.659Z,20.98
2023-03-02T08:00:36.685Z,20.92
2023-03-02T08:03:03.509Z,18.75
2023-03-02T08:05:30.676Z,20.40
2023-03-02T08:07:57.339Z,20.35
2023-03-02T08:10:24.063Z,19.95
2023-03-02T08:12:50.756Z,19.48
2023-03-02T08:15:17.522Z,18.77
2023-03-02T08:17:44.874Z,19.30
2023-03-02T08:20:12.257Z,19.25
2023-03-02T08:22:38.961Z,18.98
2023-03-02T08:25:07.258Z,19.92
2023-03-02T08:27:33.932Z,19.73
2023-03-02T08:30:00.588Z,19.65
2023-03-02T08:32:27.358Z,18.10
2023-03-02T08:34:54.449Z,19.90
2023-03-02T08:37:21.213Z,18.80
2023-03-02T08:39:48.573Z,19.85
2023-03-02T08:42:15.352Z,18.38
2023-03-02T08:44:41.986Z,18.02
2023-03-02T08:47:08.726Z,18.25
2023-03-02T08:49:37.865Z,17.27
2023-03-02T08:52:04.776Z,19.33
2023-03-02T08:54:32.069Z,19.15
2023-03-02T08:56:58.734Z,17.17
2023-03-02T08:59:25.496Z,18.25
2023-03-02T09:01:52.183Z,17.42
2023-03-02T09:04:19.120Z,17.55
2023-03-02T09:06:45.838Z,18.67
2023-03-02T09:09:13.963Z,17.75
2023-03-02T09:11:42.190Z,19.38
2023-03-02T09:14:09.121Z,17.95
2023-03-02T09:16:35.832Z,17.85
2023-03-02T09:19:02.712Z,17.70
2023-03-02T09:21:29.531Z,18.67
2023-03-02T09:23:58.073Z,19.33
2023-03-02T09:26:26.338Z,18.27
2023-03-02T09:28:53.096Z,19.08
2023-03-02T09:31:19.949Z,19.40
2023-03-02T09:33:46.687Z,17.67
2023-03-02T09:36:19.261Z,18.23
2023-03-02T09:38:46.026Z,17.67
2023-03-02T09:41:31.942Z,18.48
2023-03-02T09:44:37.159Z,18.88
2023-03-02T09:47:05.888Z,18.13
2023-03-02T09:49:51.242Z,18.98
2023-03-02T09:52:47.588Z,18.50
2023-03-02T09:55:16.812Z,19.48
2023-03-02T09:57:44.598Z,18.55
2023-03-02T10:00:20.170Z,19.33
2023-03-02T10:02:54.401Z,17.77
2023-03-02T10:05:31.272Z,19.80
2023-03-02T10:07:59.389Z,17.30
2023-03-02T10:10:44.210Z,17.65
2023-03-02T10:13:21.480Z,17.55
2023-03-02T10:16:20.324Z,18.55
2023-03-02T10:19:25.016Z,17.10
2023-03-02T10:21:59.123Z,18.88
2023-03-02T10:24:40.785Z,17.13
2023-03-02T10:27:20.533Z,17.52
2023-03-02T10:29:58.178Z,17.50
2023-03-02T10:32:31.708Z,18.17
2023-03-02T10:34:59.561Z,16.52
2023-03-02T10:37:30.438Z,18.48
2023-03-02T10:39:57.461Z,19.73
2023-03-02T10:42:29.471Z,18.92
2023-03-02T10:44:59.237Z,17.95
2023-03-02T10:47:28.019Z,19.58
2023-03-02T10:49:56.386Z,19.13
2023-03-02T10:52:28.034Z,18.50
2023-03-02T10:55:05.271Z,20.15
2023-03-02T10:57:41.926Z,19.83
2023-03-02T11:00:18.000Z,20.27
2023-03-02T11:02:54.688Z,19.00
2023-03-02T11:05:41.316Z,18.63
2023-03-02T11:08:18.627Z,19.55
2023-03-02T11:11:05.763Z,18.00
2023-03-02T11:13:37.317Z,19.35
2023-03-02T11:16:21.436Z,18.95
2023-03-02T11:19:08.393Z,18.45
2023-03-02T11:21:36.241Z,19.75
2023-03-02T11:24:19.677Z,18.55
2023-03-02T11:26:50.896Z,18.60
2023-03-02T11:29:28.932Z,19.00
2023-03-02T11:32:04.975Z,18.55
2023-03-02T11:34:36.112Z,18.30
2023-03-02T11:37:21.861Z,18.80
2023-03-02T11:39:54.936Z,18.35
2023-03-02T11:42:31.032Z,18.38
2023-03-02T11:45:02.071Z,17.85
2023-03-02T11:47:31.757Z,18.50
2023-03-02T11:50:05.035Z,19.48
2023-03-02T11:52:34.792Z,18.77
2023-03-02T11:55:16.413Z,18.55
2023-03-02T11:57:49.562Z,18.00
2023-03-02T12:00:19.354Z,18.50
2023-03-02T12:02:46.032Z,18.83
2023-03-02T12:05:27.507Z,19.77
2023-03-02T12:08:02.906Z,19.80
2023-03-02T12:10:41.996Z,18.80
2023-03-02T12:13:21.665Z,18.98
2023-03-02T12:15:52.517Z,19.52
2023-03-02T12:18:22.448Z,19.50
2023-03-02T12:21:08.580Z,19.00
2023-03-02T12:23:40.708Z,18.50
2023-03-02T12:26:32.028Z,18.67
2023-03-02T12:29:01.216Z,18.67
2023-03-02T12:31:50.512Z,18.30
2023-03-02T12:34:35.130Z,19.10
2023-03-02T12:37:07.513Z,17.75
2023-03-02T12:40:12.256Z,18.88
2023-03-02T12:43:19.642Z,18.75
2023-03-02T12:46:29.015Z,19.45
2023-03-02T12:49:14.827Z,17.85
2023-03-02T12:51:53.978Z,17.17
2023-03-02T12:54:26.067Z,18.27
2023-03-02T12:57:15.281Z,17.77
2023-03-02T12:59:42.649Z,18.83
2023-03-02T13:02:15.177Z,17.38
2023-03-02T13:04:42.079Z,18.35
2023-03-02T13:07:19.759Z,18.13
2023-03-02T13:09:56.705Z,18.95
2023-03-02T13:12:26.753Z,19.15
2023-03-02T13:14:56.970Z,18.60
2023-03-02T13:17:31.859Z,16.58
2023-03-02T13:20:00.250Z,18.60
2023-03-02T13:22:28.239Z,17.40
2023-03-02T13:25:02.028Z,17.70
2023-03-02T13:27:29.107Z,18.02
2023-03-02T13:29:56.625Z,19.15
2023-03-02T13:32:40.678Z,17.63
2023-03-02T13:35:26.459Z,18.75
2023-03-02T13:38:13.734Z,19.27
2023-03-02T13:40:44.610Z,18.38
2023-03-02T13:43:26.638Z,18.13
2023-03-02T13:46:02.063Z,18.90
2023-03-02T13:48:29.439Z,18.35
2023-03-02T13:50:58.859Z,18.77
2023-03-02T13:53:27.387Z,17.83
2023-03-02T13:55:54.424Z,18.15
2023-03-02T13:58:21.692Z,19.80
2023-03-02T14:00:49.498Z,18.98
2023-03-02T14:03:29.025Z,18.00
2023-03-02T14:05:57.297Z,18.48
2023-03-02T14:08:24.133Z,16.52
2023-03-02T14:10:53.459Z,19.40
2023-03-02T14:13:24.044Z,19.80
2023-03-02T14:15:52.407Z,18.98
2023-03-02T14:18:28.315Z,18.90
2023-03-02T14:20:55.649Z,19.48
2023-03-02T14:23:23.298Z,18.45
2023-03-02T14:25:50.726Z,18.98
2023-03-02T14:28:27.237Z,18.08
2023-03-02T14:30:55.805Z,18.60
2023-03-02T14:33:23.080Z,19.05
2023-03-02T14:35:52.419Z,18.42
2023-03-02T14:38:22.644Z,17.42
2023-03-02T14:40:49.370Z,19.10
2023-03-02T14:43:18.443Z,18.75
2023-03-02T14:45:45.476Z,18.33
2023-03-02T14:48:12.418Z,17.48
2023-03-02T14:50:41.445Z,18.88
2023-03-02T14:53:16.877Z,19.65
2023-03-02T14:55:44.036Z,18.52
2023-03-02T14:58:25.364Z,18.95
2023-03-02T15:00:52.167Z,18.73
2023-03-02T15:03:22.571Z,18.75
2023-03-02T15:06:00.965Z,18.83
2023-03-02T15:08:29.078Z,18.15
2023-03-02T15:10:56.893Z,19.70
2023-03-02T15:13:23.573Z,17.88
2023-03-02T15:15:50.518Z,16.58
2023-03-02T15:18:19.654Z,18.05
2023-03-02T15:20:46.577Z,17.73
2023-03-02T15:23:14.316Z,17.98
2023-03-02T15:25:41.069Z,17.77
2023-03-02T15:28:08.045Z,18.60
2023-03-02T15:30:35.471Z,16.15
2023-03-02T15:33:02.196Z,18.40
2023-03-02T15:35:29.372Z,19.85
2023-03-02T15:37:58.231Z,16.65
2023-03-02T15:40:25.781Z,17.67
2023-03-02T15:42:53.141Z,18.00
2023-03-02T15:45:20.138Z,18.58
2023-03-02T15:47:47.116Z,18.63
2023-03-02T15:50:13.849Z,18.10
2023-03-02T15:52:41.496Z,18.50
2023-03-02T15:55:08.946Z,18.73
2023-03-02T15:57:39.393Z,20.02
2023-03-02T16:00:06.862Z,19.75
2023-03-02T16:02:33.795Z,18.42
2023-03-02T16:05:00.530Z,18.33
2023-03-02T16:07:27.287Z,17.33
2023-03-02T16:09:53.923Z,21.98
2023-03-02T16:12:23.251Z,19.67
2023-03-02T16:14:49.924Z,19.75
2023-03-02T16:17:18.970Z,19.83
2023-03-02T16:19:46.087Z,18.88
2023-03-02T16:22:12.770Z,18.05
2023-03-02T16:24:40.913Z,20.60
2023-03-02T16:27:08.597Z,18.27
2023-03-02T16:29:35.280Z,19.35
2023-03-02T16:32:02.043Z,19.10
2023-03-02T16:34:28.801Z,18.70
2023-03-02T16:36:55.638Z,18.38
2023-03-02T16:39:22.831Z,20.17
2023-03-02T16:41:51.221Z,18.92
2023-03-02T16:44:18.203Z,19.13
2023-03-02T16:46:45.130Z,18.35
2023-03-02T16:49:13.211Z,16.42
2023-03-02T16:51:40.516Z,16.73
2023-03-02T16:54:07.549Z,17.48
2023-03-02T16:56:34.342Z,18.05
2023-03-02T16:59:01.045Z,17.02
2023-03-02T17:01:28.488Z,18.05
2023-03-02T17:03:55.205Z,19.27
2023-03-02T17:06:23.288Z,18.50
2023-03-02T17:08:50.722Z,17.10
2023-03-02T17:11:18.203Z,18.02
2023-03-02T17:13:44.899Z,18.08
2023-03-02T17:16:12.111Z,17.70
2023-03-02T17:18:39.027Z,18.88
2023-03-02T17:21:05.952Z,18.08
2023-03-02T17:23:32.945Z,19.55
2023-03-02T17:25:59.632Z,19.77
2023-03-02T17:28:26.304Z,20.75
2023-03-02T17:30:53.169Z,21.15
2023-03-02T17:33:19.919Z,21.70
2023-03-02T17:35:46.712Z,22.10
2023-03-02T17:38:14.473Z,20.38
2023-03-02T17:40:41.887Z,22.08
2023-03-02T17:43:08.786Z,19.60
2023-03-02T17:45:35.648Z,21.90
2023-03-02T17:48:02.379Z,20.77
2023-03-02T17:50:31.723Z,19.60
2023-03-02T17:52:59.682Z,19.83
2023-03-02T17:55:26.584Z,18.17
2023-03-02T17:57:53.302Z,19.08
2023-03-02T18:00:21.723Z,22.70
2023-03-02T18:02:49.072Z,24.38
2023-03-02T18:05:15.893Z,21.02
2023-03-02T18:07:42.593Z,22.05
2023-03-02T18:10:10.243Z,19.50
2023-03-02T18:12:37.333Z,18.10
2023-03-02T18:15:05.017Z,18.90
2023-03-02T18:17:31.887Z,20.52
2023-03-02T18:19:58.552Z,19.27
2023-03-02T18:22:25.232Z,20.70
2023-03-02T18:24:52.804Z,19.63
2023-03-02T18:27:19.642Z,18.80
2023-03-02T18:29:46.360Z,18.25
2023-03-02T18:32:13.708Z,20.98
2023-03-02T18:34:40.621Z,18.17
2023-03-02T18:37:07.312Z,18.67
2023-03-02T18:39:34.517Z,20.75
2023-03-02T18:42:01.440Z,22.30
2023-03-02T18:44:28.318Z,20.67
2023-03-02T18:46:55.636Z,19.45
2023-03-02T18:49:22.889Z,19.20
2023-03-02T18:51:49.912Z,18.42
2023-03-02T18:54:16.613Z,20.02
2023-03-02T18:56:43.310Z,19.48
2023-03-02T18:59:11.228Z,18.73
2023-03-02T19:01:38.077Z,20.63
2023-03-02T19:04:05.267Z,19.50
2023-03-02T19:06:32.516Z,21.55
2023-03-02T19:08:59.229Z,21.52
2023-03-02T19:11:26.237Z,20.77
2023-03-02T19:13:53.027Z,20.88
2023-03-02T19:16:19.775Z,19.23
2023-03-02T19:18:46.824Z,18.52
2023-03-02T19:21:13.554Z,19.98
2023-03-02T19:23:41.038Z,20.20
2023-03-02T19:26:08.208Z,20.05
2023-03-02T19:28:36.083Z,19.08
2023-03-02T19:31:08.858Z,17.45
2023-03-02T19:33:36.121Z,18.85
2023-03-02T19:36:03.582Z,18.13
2023-03-02T19:38:30.298Z,17.55
2023-03-02T19:40:58.471Z,19.58
2023-03-02T19:43:26.509Z,19.08
2023-03-02T19:45:53.530Z,19.27
2023-03-02T19:48:20.732Z,19.05
2023-03-02T19:50:48.009Z,20.13
2023-03-02T19:53:16.851Z,19.25
2023-03-02T19:55:44.002Z,20.00
2023-03-02T19:58:16.878Z,19.55
2023-03-02T20:00:44.364Z,19.17
2023-03-02T20:03:11.055Z,19.38
2023-03-02T20:05:37.895Z,18.83
2023-03-02T20:08:05.634Z,20.00
2023-03-02T20:10:39.420Z,21.23
2023-03-02T20:13:07.271Z,20.73
2023-03-02T20:15:38.062Z,20.17
2023-03-02T20:18:06.476Z,22.30
2023-03-02T20:20:35.382Z,22.65
2023-03-02T20:23:02.185Z,22.85
2023-03-02T20:25:28.989Z,20.65
2023-03-02T20:27:56.390Z,20.42
2023-03-02T20:30:30.240Z,21.35
2023-03-02T20:32:58.274Z,21.10
2023-03-02T20:35:26.965Z,20.20
2023-03-02T20:37:55.104Z,20.27
2023-03-02T20:40:23.170Z,20.40
2023-03-02T20:42:49.923Z,19.58
2023-03-02T20:45:16.874Z,18.65
2023-03-02T20:47:43.656Z,18.02
2023-03-02T20:50:13.703Z,19.92
2023-03-02T20:52:40.397Z,19.20
2023-03-02T20:55:08.869Z,20.35
2023-03-02T20:57:35.553Z,17.75
2023-03-02T21:00:05.170Z,18.00
2023-03-02T21:02:32.302Z,17.83
2023-03-02T21:04:59.080Z,18.10
2023-03-02T21:07:25.996Z,18.95
2023-03-02T21:09:52.665Z,19.50
2023-03-02T21:12:19.547Z,18.77
2023-03-02T21:14:46.394Z,17.88
2023-03-02T21:17:13.110Z,22.15
2023-03-02T21:19:39.797Z,21.60
2023-03-02T21:22:06.545Z,18.40
2023-03-02T21:24:33.255Z,18.27
2023-03-02T21:27:01.291Z,18.70
2023-03-02T21:29:28.271Z,17.20
2023-03-02T21:31:55.087Z,18.48
2023-03-02T21:34:22.235Z,17.33
2023-03-02T21:36:52.994Z,18.17
2023-03-02T21:39:23.451Z,17.33
2023-03-02T21:41:51.163Z,18.05
2023-03-02T21:44:18.470Z,19.45
2023-03-02T21:46:45.331Z,19.00
2023-03-02T21:49:16.166Z,19.13
2023-03-02T21:51:42.929Z,18.13
2023-03-02T21:54:09.642Z,20.30
2023-03-02T21:56:36.332Z,18.63
2023-03-02T21:59:04.032Z,18.88
2023-03-02T22:01:32.689Z,18.35
2023-03-02T22:04:00.593Z,18.42
2023-03-02T22:06:30.752Z,19.52
2023-03-02T22:08:58.173Z,20.42
2023-03-02T22:11:36.307Z,19.88
2023-03-02T22:14:12.226Z,19.73
2023-03-02T22:16:41.206Z,20.30
2023-03-02T22:19:23.958Z,18.27
2023-03-02T22:21:51.305Z,18.70
2023-03-02T22:24:26.404Z,18.38
2023-03-02T22:27:00.047Z,17.92
2023-03-02T22:29:29.572Z,17.27
2023-03-02T22:31:58.984Z,18.50
2023-03-02T22:34:27.842Z,18.42
2023-03-02T22:37:10.152Z,18.20
2023-03-02T22:39:36.892Z,18.50
2023-03-02T22:42:16.678Z,18.17
2023-03-02T22:44:44.428Z,17.55
2023-03-02T22:47:20.720Z,18.38
2023-03-02T22:49:53.567Z,18.65
2023-03-02T22:52:24.165Z,18.40
2023-03-02T22:54:51.224Z,20.80
2023-03-02T22:57:33.693Z,20.50
2023-03-02T23:00:23.740Z,20.75
2023-03-02T23:02:51.119Z,19.52
2023-03-02T23:05:30.182Z,20.13
2023-03-02T23:08:20.250Z,20.08
2023-03-02T23:10:47.465Z,19.55
2023-03-02T23:13:17.554Z,20.00
2023-03-02T23:15:45.529Z,20.38
2023-03-02T23:18:24.085Z,21.58
2023-03-02T23:20:51.193Z,19.63
2023-03-02T23:23:19.674Z,20.45
2023-03-02T23:25:46.870Z,20.23
2023-03-02T23:28:13.775Z,20.88
2023-03-02T23:30:40.761Z,21.13
2023-03-02T23:33:07.791Z,20.77
2023-03-02T23:35:34.886Z,20.67
2023-03-02T23:38:01.627Z,21.40
2023-03-02T23:40:29.037Z,21.80
2023-03-02T23:42:55.997Z,20.90
2023-03-02T23:45:22.737Z,20.48
2023-03-02T23:47:49.469Z,21.95
2023-03-02T23:50:16.140Z,20.70
2023-03-02T23:52:42.812Z,21.80
2023-03-02T23:55:10.041Z,21.58
2023-03-02T23:57:36.706Z,20.25
